Terminal Aerodrome Forecast
Issued by NWS

Home | Current Version | Previous Version | Graphics & Text | Print | Product List | Glossary Off
Versions: 1 2 3 4 5 6 7 8 9 10 11 12 13 14 15 16 17 18 19 20 21 22 23 24 25 26 27 28 29 30

000
FTUS43 KDDC 201132
TAFHYS
TAF
KHYS 201132Z 2012/2112 22010KT P6SM FEW200
     FM201800 01008KT P6SM FEW050
     FM210000 03010KT P6SM BKN040
     FM210500 04010KT P6SM SCT060=

USA.gov is the U.S. government's official web portal to all federal, state and local government web resources and services.